Molengracht — PCJG — position and weather

sailwx.info

Track history (hours):
 
Tides and Currents Weather Stations Pressure Air Temp Water Temp Dewpoint Dewpoint Depression Visibility Wind Speed Wind Dir Waves Ship Positions

Molengracht

Last reported at 2014-Aug-17 09:06 UTC. Time now 2014-Aug-31 00:30 UTC.
Position S 11°21' E 129°33'.
Warning: this ship's position is 13 days out of date.

Length 143 m; draft 6.1 m.

Type: Cargo ship. MMSI: 246770000.

Date/timePositionNaut miles runAvg speedWind from/ knotsBaromVisibWave heightAir tempDewpointWater temp
2014-Aug-17 09:06S 11°21' E 129°33'814.8
2014-Aug-17 08:33S 11°27' E 129°38'1313.1
2014-Aug-17 07:33S 11°38' E 129°46'8 8.4
2014-Aug-17 06:33S 11°44' E 129°51'1514.4
2014-Aug-17 05:29S 11°57' E 129°60'8 8.4
2014-Aug-17 04:31S 12°01' E 130°07'1212.1
2014-Aug-17 03:33S 12°06' E 130°18'9 9.4
2014-Aug-17 02:33S 12°10' E 130°27'9 8.6
2014-Aug-17 01:33S 12°14' E 130°34'6 6.3
2014-Aug-17 00:33S 12°17' E 130°40'6 5.7
2014-Aug-16 23:33S 12°22' E 130°43'9 8.6
2014-Aug-16 22:33S 12°28' E 130°49'4 3.9
2014-Aug-16 21:29S 12°29' E 130°53'0 0.0
2014-Aug-16 20:29S 12°29' E 130°53'0 0.0
2014-Aug-16 19:32S 12°29' E 130°53'0 0.0
2014-Aug-16 18:32S 12°29' E 130°53'0 0.0
2014-Aug-16 17:32S 12°29' E 130°53'0 0.0
2014-Aug-16 16:32S 12°29' E 130°53'0 0.0
2014-Aug-16 15:32S 12°29' E 130°53'0 0.0
2014-Aug-16 14:32S 12°29' E 130°53'0 0.0
2014-Aug-16 13:32S 12°29' E 130°53'0 0.0
2014-Aug-16 12:32S 12°29' E 130°53'0 0.0
2014-Aug-16 11:23S 12°29' E 130°53'0 0.0
2014-Aug-16 10:32S 12°29' E 130°53'0 0.0
2014-Aug-16 09:26S 12°29' E 130°53'0 0.0
2014-Aug-16 08:26S 12°29' E 130°53'0 0.0
2014-Aug-16 07:26S 12°29' E 130°53'0 0.0
2014-Aug-16 06:29S 12°29' E 130°53'0 0.0
2014-Aug-16 05:29S 12°29' E 130°53'0 0.0
2014-Aug-16 04:29S 12°29' E 130°53'0 0.0
2014-Aug-16 03:32S 12°29' E 130°53'0 0.0
2014-Aug-16 02:32S 12°29' E 130°53'0 0.0
2014-Aug-16 01:32S 12°29' E 130°53'0 0.0
2014-Aug-16 00:32S 12°29' E 130°53'0 0.0
2014-Aug-15 23:32S 12°29' E 130°53'0 0.0
2014-Aug-15 22:32S 12°29' E 130°53'0 0.0
2014-Aug-15 21:32S 12°29' E 130°53'0 0.0
2014-Aug-15 20:23S 12°29' E 130°53'0 0.0
2014-Aug-15 19:23S 12°29' E 130°53'0 0.0
2014-Aug-15 18:26S 12°29' E 130°53'0 0.0
2014-Aug-15 17:26S 12°29' E 130°53'0 0.0
2014-Aug-15 16:26S 12°29' E 130°53'0 0.0
2014-Aug-15 15:29S 12°29' E 130°53'0 0.0
2014-Aug-15 14:29S 12°29' E 130°53'0 0.0
2014-Aug-15 13:26S 12°29' E 130°53'0 0.0
2014-Aug-15 12:32S 12°29' E 130°53'0 0.0
2014-Aug-15 11:32S 12°29' E 130°53'0 0.0
2014-Aug-15 10:32S 12°29' E 130°53'0 0.0
2014-Aug-15 09:32S 12°29' E 130°53'0 0.0
2014-Aug-15 08:32S 12°29' E 130°53'0 0.0
2014-Aug-15 07:32S 12°29' E 130°53'0 0.0
2014-Aug-15 06:32S 12°29' E 130°53'0 0.3
2014-Aug-15 05:33S 12°29' E 130°53'8 8.3
2014-Aug-15 04:33S 12°25' E 130°46'9 8.9
2014-Aug-15 03:33S 12°16' E 130°42'0 0.3
2014-Aug-15 02:31S 12°16' E 130°42'0 0.2
2014-Aug-15 01:32S 12°16' E 130°42'0 0.1
2014-Aug-15 00:32S 12°16' E 130°42'0 0.0
2014-Aug-14 23:32S 12°16' E 130°42'0 0.1
2014-Aug-14 22:32S 12°16' E 130°42'0 0.0
2014-Aug-14 21:20S 12°16' E 130°42'0 0.0
2014-Aug-14 20:32S 12°16' E 130°42'0 0.1
2014-Aug-14 19:26S 12°16' E 130°42'0 0.0
2014-Aug-14 18:26S 12°16' E 130°42'0 0.1
2014-Aug-14 17:29S 12°16' E 130°42'0 0.0
2014-Aug-14 16:29S 12°16' E 130°42'0 0.0
2014-Aug-14 15:29S 12°16' E 130°42'0 0.0
2014-Aug-14 14:32S 12°16' E 130°42'0 0.1
2014-Aug-14 13:29S 12°16' E 130°42'0 0.1
2014-Aug-14 12:32S 12°16' E 130°42'0 0.1
2014-Aug-14 11:33S 12°16' E 130°42'0 0.0
2014-Aug-14 10:33S 12°16' E 130°42'6 6.1
2014-Aug-14 09:33S 12°14' E 130°37'1515.4
2014-Aug-14 08:33S 12°08' E 130°22'1615.9
2014-Aug-14 07:33S 12°01' E 130°08'  
Track history (hours):
 
Tides and Currents Weather Stations Pressure Air Temp Water Temp Dewpoint Dewpoint Depression Visibility Wind Speed Wind Dir Waves Ship Positions

Molengracht

Last reported at 2014-Aug-17 09:06 UTC. Time now 2014-Aug-31 00:30 UTC.
Position S 11°21' E 129°33'.
Warning: this ship's position is 13 days out of date.

Length 143 m; draft 6.1 m.

Type: Cargo ship. MMSI: 246770000.

Date/timePositionNaut miles runAvg speedWind from/ knotsBaromVisibWave heightAir tempDewpointWater temp
2014-Aug-17 09:06S 11°21' E 129°33'814.8
2014-Aug-17 08:33S 11°27' E 129°38'1313.1
2014-Aug-17 07:33S 11°38' E 129°46'8 8.4
2014-Aug-17 06:33S 11°44' E 129°51'1514.4
2014-Aug-17 05:29S 11°57' E 129°60'8 8.4
2014-Aug-17 04:31S 12°01' E 130°07'1212.1
2014-Aug-17 03:33S 12°06' E 130°18'9 9.4
2014-Aug-17 02:33S 12°10' E 130°27'9 8.6
2014-Aug-17 01:33S 12°14' E 130°34'6 6.3
2014-Aug-17 00:33S 12°17' E 130°40'6 5.7
2014-Aug-16 23:33S 12°22' E 130°43'9 8.6
2014-Aug-16 22:33S 12°28' E 130°49'4 3.9
2014-Aug-16 21:29S 12°29' E 130°53'0 0.0
2014-Aug-16 20:29S 12°29' E 130°53'0 0.0
2014-Aug-16 19:32S 12°29' E 130°53'0 0.0
2014-Aug-16 18:32S 12°29' E 130°53'0 0.0
2014-Aug-16 17:32S 12°29' E 130°53'0 0.0
2014-Aug-16 16:32S 12°29' E 130°53'0 0.0
2014-Aug-16 15:32S 12°29' E 130°53'0 0.0
2014-Aug-16 14:32S 12°29' E 130°53'0 0.0
2014-Aug-16 13:32S 12°29' E 130°53'0 0.0
2014-Aug-16 12:32S 12°29' E 130°53'0 0.0
2014-Aug-16 11:23S 12°29' E 130°53'0 0.0
2014-Aug-16 10:32S 12°29' E 130°53'0 0.0
2014-Aug-16 09:26S 12°29' E 130°53'0 0.0
2014-Aug-16 08:26S 12°29' E 130°53'0 0.0
2014-Aug-16 07:26S 12°29' E 130°53'0 0.0
2014-Aug-16 06:29S 12°29' E 130°53'0 0.0
2014-Aug-16 05:29S 12°29' E 130°53'0 0.0
2014-Aug-16 04:29S 12°29' E 130°53'0 0.0
2014-Aug-16 03:32S 12°29' E 130°53'0 0.0
2014-Aug-16 02:32S 12°29' E 130°53'0 0.0
2014-Aug-16 01:32S 12°29' E 130°53'0 0.0
2014-Aug-16 00:32S 12°29' E 130°53'0 0.0
2014-Aug-15 23:32S 12°29' E 130°53'0 0.0
2014-Aug-15 22:32S 12°29' E 130°53'0 0.0
2014-Aug-15 21:32S 12°29' E 130°53'0 0.0
2014-Aug-15 20:23S 12°29' E 130°53'0 0.0
2014-Aug-15 19:23S 12°29' E 130°53'0 0.0
2014-Aug-15 18:26S 12°29' E 130°53'0 0.0
2014-Aug-15 17:26S 12°29' E 130°53'0 0.0
2014-Aug-15 16:26S 12°29' E 130°53'0 0.0
2014-Aug-15 15:29S 12°29' E 130°53'0 0.0
2014-Aug-15 14:29S 12°29' E 130°53'0 0.0
2014-Aug-15 13:26S 12°29' E 130°53'0 0.0
2014-Aug-15 12:32S 12°29' E 130°53'0 0.0
2014-Aug-15 11:32S 12°29' E 130°53'0 0.0
2014-Aug-15 10:32S 12°29' E 130°53'0 0.0
2014-Aug-15 09:32S 12°29' E 130°53'0 0.0
2014-Aug-15 08:32S 12°29' E 130°53'0 0.0
2014-Aug-15 07:32S 12°29' E 130°53'0 0.0
2014-Aug-15 06:32S 12°29' E 130°53'0 0.3
2014-Aug-15 05:33S 12°29' E 130°53'8 8.3
2014-Aug-15 04:33S 12°25' E 130°46'9 8.9
2014-Aug-15 03:33S 12°16' E 130°42'0 0.3
2014-Aug-15 02:31S 12°16' E 130°42'0 0.2
2014-Aug-15 01:32S 12°16' E 130°42'0 0.1
2014-Aug-15 00:32S 12°16' E 130°42'0 0.0
2014-Aug-14 23:32S 12°16' E 130°42'0 0.1
2014-Aug-14 22:32S 12°16' E 130°42'0 0.0
2014-Aug-14 21:20S 12°16' E 130°42'0 0.0
2014-Aug-14 20:32S 12°16' E 130°42'0 0.1
2014-Aug-14 19:26S 12°16' E 130°42'0 0.0
2014-Aug-14 18:26S 12°16' E 130°42'0 0.1
2014-Aug-14 17:29S 12°16' E 130°42'0 0.0
2014-Aug-14 16:29S 12°16' E 130°42'0 0.0
2014-Aug-14 15:29S 12°16' E 130°42'0 0.0
2014-Aug-14 14:32S 12°16' E 130°42'0 0.1
2014-Aug-14 13:29S 12°16' E 130°42'0 0.1
2014-Aug-14 12:32S 12°16' E 130°42'0 0.1
2014-Aug-14 11:33S 12°16' E 130°42'0 0.0
2014-Aug-14 10:33S 12°16' E 130°42'6 6.1
2014-Aug-14 09:33S 12°14' E 130°37'1515.4
2014-Aug-14 08:33S 12°08' E 130°22'1615.9
2014-Aug-14 07:33S 12°01' E 130°08'  

Dump ship's entire track history